Detalii statie CORIPLANT MIHALT [0000197B]

Toti senzorii

Date Temperatura solului [C]Precipitatii [mm]Voltaj baterie [mV]Leaf Wetness [Min]HC Air temperature [C]HC Relative humidity [%]Punctul de roua [C]
medieminmaxsumaultimatimpmedieminmaxmediemediemin
2019-02-21 01:00:00 0 6796 3.88 3.71 4.09 92.79 2.6 2.5
2019-02-21 02:00:00 0 6796 3.51 3.42 3.75 97.85 3.1 3
2019-02-21 03:00:00 0 6796 3.09 2.75 3.44 99.97 3 2.7
2019-02-21 04:00:00 0 6796 2.1 1.11 2.91 100 2 1.1
2019-02-21 05:00:00 0 6786 0.22 -0.26 1.08 100 0.2 -0.1
2019-02-21 06:00:00 0 6786 -0.83 -1.37 -0.23 100 -0.6 -1.2
2019-02-21 07:00:00 0 6776 -0.9 -1.26 -0.3 100 -0.7 -1.1
2019-02-21 08:00:00 0 6796 -1.75 -2.22 -1.32 100 -1.6 -2.1
2019-02-21 09:00:00 0 6982 -0.61 -1.26 0.41 100 -0.5 -1.1
2019-02-21 10:00:00 0 7158 1.72 0.73 2.62 100 1.6 0.7
2019-02-21 11:00:00 0 7206 4.81 2.91 6.53 99.48 4.6 2.9
2019-02-21 12:00:00 0 7196 8.59 6.42 10.47 81.24 5.2 2.3
2019-02-21 13:00:00 0 7206 10.18 9.73 10.91 55.87 1.6 0.7
2019-02-21 14:00:00 0 7196 9.58 9.45 9.83 54.84 0.8 0.1
2019-02-21 15:00:00 0 7206 9.47 9.21 9.71 56.08 1 -0.3
2019-02-21 16:00:00 0 7206 9.48 9.13 9.72 58.37 1.6 1.1
2019-02-21 17:00:00 0 7108 9.73 9.36 10.07 56.87 1.4 0.8
2019-02-21 18:00:00 0 6914 7.23 6.17 8.9 63.64 0.6 -0.1
2019-02-21 19:00:00 0 6894 5.01 3.81 5.83 68.36 -0.3 -0.7
2019-02-21 20:00:00 0 6854 2.28 1.75 3.48 80.62 -0.7 -1.1
2019-02-21 21:00:00 0 6834 1.58 0.77 2.16 84.75 -0.7 -1.3
2019-02-21 22:00:00 0 6834 -0.01 -0.65 0.5 93.15 -0.9 -1.3
2019-02-21 23:00:00 0 6826 -0.98 -1.29 -0.55 98.96 -1 -1.3
2019-02-22 00:00:00 0 6816 -1.14 -1.33 -0.99 99.89 -1 -1.2
2019-02-22 01:00:00 0 6796 -1.23 -1.44 -0.99 100 -1.1 -1.3
2019-02-22 02:00:00 0 6776 -0.39 -0.92 0.09 100 -0.3 -0.8
2019-02-22 03:00:00 0 6786 0.59 0.2 1.07 100 0.5 0.2
2019-02-22 04:00:00 0 6786 1.32 0.98 1.98 99.79 1.2 0.9
2019-02-22 05:00:00 0.6 6786 2.2 1.65 2.62 99.82 2.1 1.5
2019-02-22 06:00:00 1 6786 2.61 2.37 2.72 100 2.5 2.3
2019-02-22 07:00:00 0.4 6786 2.42 2.26 2.55 100 2.3 2.2
2019-02-22 08:00:00 0 6776 2.2 2.15 2.24 100 2.1 2.1
2019-02-22 09:00:00 0 6864 2.41 2.24 2.66 100 2.3 2.2
2019-02-22 10:00:00 0 6962 2.62 2.57 2.7 100 2.5 2.5
2019-02-22 11:00:00 0 7020 2.91 2.55 3.21 100 2.8 2.5
2019-02-22 12:00:00 0.2 7216 3.56 3.22 3.9 100 3.5 3.2
2019-02-22 13:00:00 0 7206 3.8 3.63 4.03 100 3.7 3.6
2019-02-22 14:00:00 0 7010 3.54 3.47 3.75 100 3.4 3.4
2019-02-22 15:00:00 0.2 6972 3.37 3.3 3.5 100 3.3 3.3
2019-02-22 16:00:00 0.6 6942 3.39 3.31 3.44 100 3.3 3.3
2019-02-22 17:00:00 1.4 6914 3.2 2.81 3.46 100 3.1 2.8
2019-02-22 18:00:00 0.2 6884 1.53 0.77 2.55 100 1.4 0.7
2019-02-22 19:00:00 0 6864 0.42 0.35 0.61 100 0.3 0.3